createdAt,value
2019-03-15T00:00:42.831Z,79.30
2019-03-15T00:03:12.689Z,79.00
2019-03-15T00:05:42.472Z,78.90
2019-03-15T00:08:12.261Z,79.00
2019-03-15T00:10:42.065Z,78.80
2019-03-15T00:13:12.473Z,79.00
2019-03-15T00:15:42.506Z,79.10
2019-03-15T00:18:12.459Z,79.10
2019-03-15T00:20:42.269Z,79.10
2019-03-15T00:23:12.162Z,79.30
2019-03-15T00:25:42.142Z,79.40
2019-03-15T00:28:12.024Z,79.50
2019-03-15T00:30:42.707Z,79.40
2019-03-15T00:33:12.606Z,79.10
2019-03-15T00:35:42.493Z,79.20
2019-03-15T00:38:12.258Z,79.20
2019-03-15T00:40:42.668Z,79.00
2019-03-15T00:43:12.602Z,79.10
2019-03-15T00:45:42.393Z,79.00
2019-03-15T00:48:12.180Z,79.10
2019-03-15T00:50:42.006Z,79.20
2019-03-15T00:53:11.963Z,79.30
2019-03-15T00:55:41.755Z,79.20
2019-03-15T00:58:11.557Z,79.00
2019-03-15T01:00:41.352Z,78.70
2019-03-15T01:03:11.925Z,78.60
2019-03-15T01:05:41.757Z,78.40
2019-03-15T01:08:11.659Z,78.40
2019-03-15T01:10:42.771Z,78.30
2019-03-15T01:13:12.688Z,77.90
2019-03-15T01:15:42.600Z,78.10
2019-03-15T01:18:12.402Z,78.30
2019-03-15T01:20:42.202Z,78.50
2019-03-15T01:23:11.985Z,78.80
2019-03-15T01:25:41.751Z,79.20
2019-03-15T01:28:11.624Z,79.50
2019-03-15T01:30:41.437Z,79.80
2019-03-15T01:33:11.198Z,80.00
2019-03-15T01:35:40.966Z,80.40
2019-03-15T01:38:10.757Z,80.40
2019-03-15T01:40:40.645Z,80.50
2019-03-15T01:43:10.445Z,80.70
2019-03-15T01:45:40.330Z,80.80
2019-03-15T01:48:11.084Z,80.90
2019-03-15T01:50:40.910Z,80.80
2019-03-15T01:53:10.824Z,80.60
2019-03-15T01:55:40.924Z,80.40
2019-03-15T01:58:10.717Z,80.30
2019-03-15T02:00:40.857Z,79.90
2019-03-15T02:03:10.719Z,79.60
2019-03-15T02:05:42.271Z,79.70
2019-03-15T02:08:12.145Z,79.50
2019-03-15T02:10:41.935Z,79.40
2019-03-15T02:13:11.838Z,79.40
2019-03-15T02:15:41.638Z,79.20
2019-03-15T02:18:11.616Z,78.80
2019-03-15T02:20:42.421Z,78.60
2019-03-15T02:23:12.459Z,78.50
2019-03-15T02:25:42.370Z,78.60
2019-03-15T02:28:12.365Z,78.60
2019-03-15T02:30:42.330Z,78.70
2019-03-15T02:33:12.416Z,78.60
2019-03-15T02:35:42.219Z,78.80
2019-03-15T02:38:12.015Z,78.90
2019-03-15T02:40:41.892Z,78.60
2019-03-15T02:43:11.702Z,78.60
2019-03-15T02:45:41.494Z,78.60
2019-03-15T02:48:11.307Z,78.70
2019-03-15T02:50:41.085Z,78.50
2019-03-15T02:53:10.948Z,78.50
2019-03-15T02:55:40.829Z,78.50
2019-03-15T02:58:10.634Z,78.40
2019-03-15T03:00:41.038Z,78.40
2019-03-15T03:03:12.009Z,78.30
2019-03-15T03:05:41.810Z,78.30
2019-03-15T03:08:11.616Z,78.20
2019-03-15T03:10:41.415Z,78.20
2019-03-15T03:13:12.051Z,78.00
2019-03-15T03:15:41.840Z,78.10
2019-03-15T03:18:11.641Z,78.10
2019-03-15T03:20:42.686Z,78.00
2019-03-15T03:23:12.449Z,77.90
2019-03-15T03:25:42.295Z,77.80
2019-03-15T03:28:12.152Z,77.80
2019-03-15T03:30:41.916Z,77.80
2019-03-15T03:33:12.681Z,78.00
2019-03-15T03:35:43.229Z,77.80
2019-03-15T03:38:13.024Z,77.80
2019-03-15T03:40:42.950Z,77.90
2019-03-15T03:43:12.762Z,77.90
2019-03-15T03:45:42.594Z,78.50
2019-03-15T03:48:15.557Z,77.80
2019-03-15T03:50:44.004Z,77.60
2019-03-15T03:53:13.944Z,77.70
2019-03-15T03:55:43.905Z,77.70
2019-03-15T03:58:13.881Z,77.50
2019-03-15T04:00:43.738Z,77.80
2019-03-15T04:03:13.875Z,77.90
2019-03-15T04:05:43.792Z,78.20
2019-03-15T04:08:13.602Z,78.50
2019-03-15T04:10:43.398Z,78.80
2019-03-15T04:13:13.332Z,78.70
2019-03-15T04:15:43.124Z,78.90
2019-03-15T04:18:12.995Z,78.90
2019-03-15T04:20:42.840Z,79.00
2019-03-15T04:23:13.482Z,79.10
2019-03-15T04:25:43.317Z,79.30
2019-03-15T04:28:13.126Z,79.40
2019-03-15T04:30:43.123Z,79.70
2019-03-15T04:33:13.916Z,79.90
2019-03-15T04:35:43.677Z,80.20
2019-03-15T04:38:13.632Z,80.30
2019-03-15T04:40:43.634Z,80.40
2019-03-15T04:43:13.482Z,80.40
2019-03-15T04:45:43.390Z,80.40
2019-03-15T04:48:13.967Z,80.30
2019-03-15T04:50:43.948Z,80.30
2019-03-15T04:53:13.759Z,80.50
2019-03-15T04:55:43.563Z,80.50
2019-03-15T04:58:14.032Z,80.60
2019-03-15T05:00:44.009Z,80.70
2019-03-15T05:03:13.781Z,80.70
2019-03-15T05:05:43.662Z,80.70
2019-03-15T05:08:13.458Z,80.80
2019-03-15T05:10:43.352Z,80.70
2019-03-15T05:13:13.138Z,80.90
2019-03-15T05:15:42.942Z,80.90
2019-03-15T05:18:12.899Z,80.90
2019-03-15T05:20:42.857Z,80.80
2019-03-15T05:23:12.719Z,80.80
2019-03-15T05:25:42.516Z,80.80
2019-03-15T05:28:12.515Z,80.80
2019-03-15T05:30:42.424Z,80.90
2019-03-15T05:33:12.249Z,80.90
2019-03-15T05:35:42.037Z,80.90
2019-03-15T05:38:12.094Z,80.80
2019-03-15T05:40:41.886Z,80.80
2019-03-15T05:43:37.801Z,80.70
2019-03-15T05:46:07.821Z,80.80
2019-03-15T05:48:38.311Z,80.80
2019-03-15T05:51:08.110Z,80.70
2019-03-15T05:53:38.069Z,80.80
2019-03-15T05:56:07.867Z,80.80
2019-03-15T05:58:37.682Z,80.90
2019-03-15T06:01:07.503Z,80.90
2019-03-15T06:03:47.891Z,80.90
2019-03-15T06:06:08.821Z,80.80
2019-03-15T06:08:38.630Z,80.60
2019-03-15T06:11:08.424Z,80.70
2019-03-15T06:13:38.290Z,80.70
2019-03-15T06:16:08.148Z,80.60
2019-03-15T06:18:38.154Z,80.40
2019-03-15T06:21:07.974Z,80.20
2019-03-15T06:23:49.706Z,80.20
2019-03-15T06:26:19.814Z,80.10
2019-03-15T06:28:49.623Z,80.00
2019-03-15T06:31:19.453Z,80.10
2019-03-15T06:33:49.444Z,80.10
2019-03-15T06:36:19.282Z,80.10
2019-03-15T06:38:49.390Z,80.10
2019-03-15T06:41:19.191Z,80.00
2019-03-15T06:43:49.028Z,79.80
2019-03-15T06:46:18.877Z,79.90
2019-03-15T06:48:48.861Z,79.90
2019-03-15T06:51:18.735Z,79.70
2019-03-15T06:53:48.526Z,79.30
2019-03-15T06:56:18.318Z,79.10
2019-03-15T06:58:48.184Z,79.10
2019-03-15T07:01:18.071Z,78.90
2019-03-15T07:03:47.881Z,78.60
2019-03-15T07:06:17.682Z,78.10
2019-03-15T07:08:47.785Z,78.80
2019-03-15T07:11:18.018Z,78.00
2019-03-15T07:13:48.702Z,77.80
2019-03-15T07:16:18.673Z,77.60
2019-03-15T07:18:49.482Z,77.40
2019-03-15T07:21:19.281Z,77.40
2019-03-15T07:23:49.345Z,77.30
2019-03-15T07:26:19.175Z,77.40
2019-03-15T07:28:49.154Z,76.80
2019-03-15T07:31:19.992Z,77.10
2019-03-15T07:33:50.497Z,77.20
2019-03-15T07:36:20.611Z,77.00
2019-03-15T07:38:50.421Z,77.00
2019-03-15T07:41:20.217Z,76.80
2019-03-15T07:43:50.137Z,76.60
2019-03-15T07:46:20.991Z,76.40
2019-03-15T07:48:51.113Z,76.80
2019-03-15T07:51:21.234Z,76.60
2019-03-15T07:53:51.126Z,76.70
2019-03-15T07:56:21.029Z,76.60
2019-03-15T07:58:51.848Z,76.30
2019-03-15T08:01:21.766Z,76.20
2019-03-15T08:03:51.659Z,75.70
2019-03-15T08:06:33.814Z,75.90
2019-03-15T08:08:53.293Z,75.60
2019-03-15T08:11:23.102Z,75.30
2019-03-15T08:13:52.982Z,74.70
2019-03-15T08:16:22.970Z,74.80
2019-03-15T08:18:52.760Z,74.80
2019-03-15T08:21:22.872Z,74.40
2019-03-15T08:23:53.506Z,74.20
2019-03-15T08:26:23.333Z,74.30
2019-03-15T08:28:53.365Z,74.50
2019-03-15T08:31:23.510Z,74.60
2019-03-15T08:33:53.609Z,74.90
2019-03-15T08:39:20.626Z,75.50
2019-03-15T08:41:50.467Z,75.20
2019-03-15T08:44:20.304Z,75.30
2019-03-15T08:46:50.838Z,75.40
2019-03-15T08:49:20.635Z,76.00
2019-03-15T08:52:03.134Z,75.90
2019-03-15T08:54:22.094Z,76.10
2019-03-15T08:56:52.001Z,76.00
2019-03-15T08:59:21.892Z,76.30
2019-03-15T09:01:51.693Z,75.90
2019-03-15T09:04:21.924Z,76.20
2019-03-15T09:06:51.880Z,76.50
2019-03-15T09:09:21.667Z,76.40
2019-03-15T09:11:51.780Z,76.10
2019-03-15T09:14:21.758Z,76.30
2019-03-15T09:16:51.573Z,76.50
2019-03-15T09:19:21.373Z,76.30
2019-03-15T09:21:51.189Z,76.80
2019-03-15T09:24:21.000Z,76.80
2019-03-15T09:26:50.806Z,76.90
2019-03-15T09:29:20.810Z,76.90
2019-03-15T09:32:04.430Z,77.40
2019-03-15T09:34:22.092Z,77.60
2019-03-15T09:36:52.030Z,77.50
2019-03-15T09:39:21.897Z,77.40
2019-03-15T09:41:51.814Z,77.00
2019-03-15T09:44:21.645Z,77.00
2019-03-15T09:46:51.517Z,77.10
2019-03-15T09:49:21.575Z,77.30
2019-03-15T09:51:51.393Z,77.20
2019-03-15T09:54:21.287Z,77.40
2019-03-15T09:56:51.263Z,77.30
2019-03-15T09:59:21.338Z,77.40
2019-03-15T10:01:51.150Z,77.40
2019-03-15T10:04:21.022Z,77.00
2019-03-15T10:06:50.922Z,77.10
2019-03-15T10:09:21.175Z,77.10
2019-03-15T10:11:51.194Z,76.80
2019-03-15T10:14:21.022Z,77.10
2019-03-15T10:16:50.929Z,77.20
2019-03-15T10:19:20.821Z,77.30
2019-03-15T10:21:50.686Z,77.80
2019-03-15T10:24:20.519Z,77.70
2019-03-15T10:26:50.597Z,78.00
2019-03-15T10:29:20.495Z,77.90
2019-03-15T10:31:50.343Z,77.80
2019-03-15T10:34:20.162Z,77.60
2019-03-15T10:36:50.026Z,78.20
2019-03-15T10:39:19.884Z,78.50
2019-03-15T10:41:49.888Z,78.30
2019-03-15T10:44:19.738Z,78.10
2019-03-15T10:46:49.566Z,78.40
2019-03-15T10:49:20.140Z,78.10
2019-03-15T10:51:50.002Z,77.60
2019-03-15T10:54:19.894Z,77.90
2019-03-15T10:56:49.697Z,78.20
2019-03-15T10:59:20.218Z,78.30
2019-03-15T11:01:50.110Z,78.60
2019-03-15T11:04:21.430Z,78.40
2019-03-15T11:06:51.567Z,78.60
2019-03-15T11:09:22.525Z,78.70
2019-03-15T11:11:52.369Z,78.70
2019-03-15T11:14:22.203Z,78.70
2019-03-15T11:16:52.046Z,78.60
2019-03-15T11:19:22.197Z,78.40
2019-03-15T11:21:52.354Z,78.10
2019-03-15T11:24:22.325Z,78.30
2019-03-15T11:26:52.141Z,78.50
2019-03-15T11:29:21.929Z,78.40
2019-03-15T11:31:52.733Z,78.40
2019-03-15T11:34:22.626Z,78.60
2019-03-15T11:36:58.318Z,78.80
2019-03-15T11:39:24.251Z,78.90
2019-03-15T11:41:54.101Z,78.50
2019-03-15T11:44:24.046Z,78.70
2019-03-15T11:46:53.837Z,78.60
2019-03-15T11:49:23.933Z,78.50
2019-03-15T11:51:53.812Z,78.30
2019-03-15T11:54:23.986Z,78.40
2019-03-15T11:56:53.787Z,78.40
2019-03-15T11:59:23.727Z,78.50
2019-03-15T12:02:03.332Z,78.80
2019-03-15T12:04:25.206Z,78.90
2019-03-15T12:06:55.373Z,78.80
2019-03-15T12:09:25.241Z,79.00
2019-03-15T12:11:55.269Z,79.20
2019-03-15T12:14:25.094Z,79.20
2019-03-15T12:16:54.974Z,79.50
2019-03-15T12:19:24.865Z,79.60
2019-03-15T12:22:05.762Z,79.70
2019-03-15T12:24:26.339Z,80.00
2019-03-15T12:26:56.175Z,79.70
2019-03-15T12:29:25.992Z,79.70
2019-03-15T12:31:55.819Z,79.80
2019-03-15T12:34:25.890Z,79.90
2019-03-15T12:36:55.990Z,79.60
2019-03-15T12:39:25.781Z,79.40
2019-03-15T12:41:55.625Z,79.60
2019-03-15T12:44:25.532Z,79.70
2019-03-15T12:46:55.513Z,79.90
2019-03-15T12:49:25.841Z,79.80
2019-03-15T12:51:55.775Z,80.00
2019-03-15T12:54:25.573Z,80.40
2019-03-15T12:56:56.056Z,80.40
2019-03-15T12:59:27.622Z,80.70
2019-03-15T13:01:57.548Z,80.90
2019-03-15T13:04:27.616Z,81.30
2019-03-15T13:06:58.173Z,81.50
2019-03-15T13:09:28.078Z,81.60
2019-03-15T13:11:58.179Z,82.30
2019-03-15T13:14:28.002Z,82.50
2019-03-15T13:16:57.909Z,82.60
2019-03-15T13:19:28.739Z,82.90
2019-03-15T13:21:58.525Z,82.90
2019-03-15T13:24:29.154Z,83.20
2019-03-15T13:27:07.277Z,83.30
2019-03-15T13:29:30.681Z,83.30
2019-03-15T13:32:00.489Z,83.30
2019-03-15T13:34:30.417Z,83.40
2019-03-15T13:37:00.229Z,83.80
2019-03-15T13:39:30.137Z,83.80
2019-03-15T13:41:59.957Z,83.80
2019-03-15T13:44:29.896Z,83.90
2019-03-15T13:46:59.780Z,83.90
2019-03-15T13:49:29.702Z,84.00
2019-03-15T13:51:59.649Z,84.20
2019-03-15T13:54:29.440Z,84.40
2019-03-15T13:56:59.950Z,84.70
2019-03-15T13:59:29.813Z,84.70
2019-03-15T14:01:59.795Z,84.90
2019-03-15T14:04:30.005Z,84.80
2019-03-15T14:06:59.866Z,84.90
2019-03-15T14:09:29.910Z,84.90
2019-03-15T14:11:59.934Z,85.20
2019-03-15T14:14:29.989Z,85.10
2019-03-15T14:16:59.954Z,85.10
2019-03-15T14:19:29.771Z,85.30
2019-03-15T14:21:59.658Z,85.20
2019-03-15T14:24:29.750Z,85.30
2019-03-15T14:26:59.585Z,85.20
2019-03-15T14:29:29.407Z,85.20
2019-03-15T14:31:59.198Z,85.10
2019-03-15T14:34:29.022Z,85.30
2019-03-15T14:36:59.075Z,85.50
2019-03-15T14:39:29.269Z,85.60
2019-03-15T14:41:59.489Z,85.90
2019-03-15T14:44:29.401Z,85.90
2019-03-15T14:46:59.506Z,86.10
2019-03-15T14:49:29.479Z,86.00
2019-03-15T14:52:00.312Z,86.10
2019-03-15T14:54:30.276Z,86.10
2019-03-15T14:57:00.214Z,86.20
2019-03-15T14:59:30.268Z,86.30
2019-03-15T15:02:00.243Z,86.30
2019-03-15T15:04:30.078Z,86.20
2019-03-15T15:06:59.929Z,86.20
2019-03-15T15:09:29.745Z,86.30
2019-03-15T15:11:59.723Z,86.20
2019-03-15T15:14:29.765Z,86.30
2019-03-15T15:16:59.707Z,86.30
2019-03-15T15:19:29.526Z,86.20
2019-03-15T15:21:59.493Z,86.20
2019-03-15T15:24:30.050Z,86.20
2019-03-15T15:26:59.956Z,86.20
2019-03-15T15:29:30.025Z,86.30
2019-03-15T15:31:59.845Z,86.20
2019-03-15T15:34:29.740Z,86.20
2019-03-15T15:36:59.554Z,87.10
2019-03-15T15:39:29.449Z,86.30
2019-03-15T15:41:59.342Z,86.40
2019-03-15T15:44:29.898Z,86.40
2019-03-15T15:46:59.767Z,86.40
2019-03-15T15:49:29.581Z,86.30
2019-03-15T15:51:59.473Z,86.30
2019-03-15T15:54:29.337Z,86.30
2019-03-15T15:56:59.326Z,86.20
2019-03-15T15:59:29.212Z,86.20
2019-03-15T16:01:59.040Z,86.30
2019-03-15T16:04:28.981Z,86.40
2019-03-15T16:06:58.994Z,86.40
2019-03-15T16:09:28.818Z,86.50
2019-03-15T16:11:58.714Z,86.60
2019-03-15T16:14:28.537Z,86.60
2019-03-15T16:16:58.433Z,86.60
2019-03-15T16:19:28.262Z,86.60
2019-03-15T16:21:58.039Z,86.60
2019-03-15T16:24:27.916Z,86.60
2019-03-15T16:26:57.837Z,86.60
2019-03-15T16:29:27.764Z,86.60
2019-03-15T16:31:57.630Z,86.50
2019-03-15T16:34:27.558Z,86.60
2019-03-15T16:36:57.360Z,86.60
2019-03-15T16:39:27.229Z,86.60
2019-03-15T16:41:57.309Z,86.60
2019-03-15T16:44:27.131Z,86.60
2019-03-15T16:46:57.870Z,86.50
2019-03-15T16:49:27.893Z,86.70
2019-03-15T16:51:57.747Z,86.60
2019-03-15T16:54:27.586Z,86.60
2019-03-15T16:56:57.506Z,86.60
2019-03-15T16:59:27.409Z,86.50
2019-03-15T17:01:57.277Z,86.50
2019-03-15T17:04:27.804Z,86.50
2019-03-15T17:07:00.724Z,86.40
2019-03-15T17:09:29.217Z,86.60
2019-03-15T17:11:58.995Z,86.40
2019-03-15T17:14:28.853Z,86.20
2019-03-15T17:16:58.754Z,86.00
2019-03-15T17:19:29.218Z,85.90
2019-03-15T17:21:58.995Z,85.80
2019-03-15T17:24:29.153Z,85.60
2019-03-15T17:26:58.955Z,85.50
2019-03-15T17:29:28.994Z,85.50
2019-03-15T17:31:58.822Z,85.50
2019-03-15T17:34:28.601Z,85.50
2019-03-15T17:37:06.414Z,85.50
2019-03-15T17:39:30.094Z,85.60
2019-03-15T17:41:59.902Z,85.70
2019-03-15T17:44:30.964Z,85.80
2019-03-15T17:47:00.889Z,85.90
2019-03-15T17:49:31.749Z,86.00
2019-03-15T17:52:02.007Z,86.10
2019-03-15T17:54:32.098Z,86.00
2019-03-15T17:57:01.868Z,86.10
2019-03-15T17:59:31.675Z,86.10
2019-03-15T18:02:01.565Z,86.20
2019-03-15T18:04:31.495Z,86.20
2019-03-15T18:07:01.297Z,86.20
2019-03-15T18:09:31.105Z,86.10
2019-03-15T18:12:01.839Z,85.90
2019-03-15T18:14:31.662Z,86.40
2019-03-15T18:17:01.686Z,86.20
2019-03-15T18:19:31.667Z,86.10
2019-03-15T18:22:01.445Z,86.10
2019-03-15T18:24:31.271Z,85.90
2019-03-15T18:27:01.115Z,86.00
2019-03-15T18:29:30.921Z,85.90
2019-03-15T18:32:01.427Z,85.90
2019-03-15T18:34:31.322Z,85.70
2019-03-15T18:37:01.310Z,85.90
2019-03-15T18:39:31.079Z,86.60
2019-03-15T18:42:00.858Z,85.60
2019-03-15T18:44:30.665Z,85.50
2019-03-15T18:47:00.758Z,85.50
2019-03-15T18:49:30.778Z,85.60
2019-03-15T18:52:00.556Z,85.40
2019-03-15T18:54:30.382Z,85.60
2019-03-15T18:57:00.200Z,85.60
2019-03-15T18:59:39.227Z,85.60
2019-03-15T19:02:01.478Z,85.70
2019-03-15T19:04:31.610Z,85.60
2019-03-15T19:07:01.422Z,85.80
2019-03-15T19:09:31.232Z,85.80
2019-03-15T19:12:01.054Z,85.60
2019-03-15T19:14:30.853Z,85.70
2019-03-15T19:17:00.651Z,85.40
2019-03-15T19:19:30.457Z,85.40
2019-03-15T19:22:00.265Z,85.40
2019-03-15T19:24:30.072Z,85.40
2019-03-15T19:27:00.190Z,85.30
2019-03-15T19:29:30.008Z,85.30
2019-03-15T19:31:59.834Z,85.20
2019-03-15T19:34:29.653Z,85.10
2019-03-15T19:37:01.059Z,85.10
2019-03-15T19:39:30.981Z,84.90
2019-03-15T19:42:01.840Z,84.90
2019-03-15T19:44:31.761Z,85.00
2019-03-15T19:47:01.595Z,84.90
2019-03-15T19:49:31.522Z,85.00
2019-03-15T19:52:01.293Z,85.10
2019-03-15T19:54:32.068Z,85.20
2019-03-15T19:57:01.905Z,85.20
2019-03-15T19:59:31.723Z,85.30
2019-03-15T20:02:03.318Z,85.20
2019-03-15T20:04:33.094Z,85.00
2019-03-15T20:07:03.583Z,85.00
2019-03-15T20:09:34.089Z,85.00
2019-03-15T20:12:04.125Z,85.10
2019-03-15T20:14:33.946Z,85.20
2019-03-15T20:17:03.814Z,85.00
2019-03-15T20:19:33.634Z,85.20
2019-03-15T20:22:03.617Z,85.20
2019-03-15T20:24:36.435Z,85.10
2019-03-15T20:27:04.906Z,85.20
2019-03-15T20:29:34.841Z,85.30
2019-03-15T20:32:05.456Z,85.10
2019-03-15T20:34:35.776Z,84.90
2019-03-15T20:37:05.606Z,85.00
2019-03-15T20:39:35.484Z,85.00
2019-03-15T20:42:05.297Z,85.00
2019-03-15T20:44:35.816Z,84.80
2019-03-15T20:47:05.630Z,84.60
2019-03-15T20:49:36.557Z,84.60
2019-03-15T20:52:06.534Z,84.60
2019-03-15T20:54:36.387Z,84.40
2019-03-15T20:57:06.161Z,84.80
2019-03-15T20:59:36.104Z,85.00
2019-03-15T21:02:06.074Z,85.20
2019-03-15T21:04:35.962Z,85.10
2019-03-15T21:07:06.477Z,85.00
2019-03-15T21:09:36.306Z,85.20
2019-03-15T21:12:06.115Z,85.20
2019-03-15T21:14:35.898Z,85.20
2019-03-15T21:17:05.809Z,85.00
2019-03-15T21:19:35.635Z,85.10
2019-03-15T21:22:05.489Z,85.10
2019-03-15T21:24:35.418Z,85.10
2019-03-15T21:27:05.293Z,85.10
2019-03-15T21:29:35.145Z,84.80
2019-03-15T21:32:05.115Z,84.90
2019-03-15T21:34:34.984Z,84.70
2019-03-15T21:37:04.956Z,84.50
2019-03-15T21:39:35.820Z,84.70
2019-03-15T21:42:05.625Z,84.70
2019-03-15T21:44:35.486Z,84.60
2019-03-15T21:47:05.309Z,84.60
2019-03-15T21:49:36.056Z,84.50
2019-03-15T21:52:06.933Z,84.40
2019-03-15T21:54:36.813Z,84.40
2019-03-15T21:57:06.590Z,84.40
2019-03-15T21:59:39.025Z,84.30
2019-03-15T22:02:07.982Z,84.40
2019-03-15T22:04:37.845Z,84.40
2019-03-15T22:07:07.758Z,84.20
2019-03-15T22:09:38.526Z,84.20
2019-03-15T22:12:08.544Z,84.40
2019-03-15T22:14:38.457Z,84.10
2019-03-15T22:17:08.313Z,84.30
2019-03-15T22:19:38.822Z,84.40
2019-03-15T22:22:08.714Z,84.60
2019-03-15T22:24:38.476Z,84.70
2019-03-15T22:27:08.574Z,84.90
2019-03-15T22:29:38.471Z,84.90
2019-03-15T22:32:08.275Z,85.00
2019-03-15T22:34:38.521Z,86.10
2019-03-15T22:37:08.276Z,82.50
2019-03-15T22:39:38.050Z,80.80
2019-03-15T22:42:07.862Z,80.20
2019-03-15T22:44:37.675Z,79.90
2019-03-15T22:47:07.565Z,80.00
2019-03-15T22:49:37.376Z,80.40
2019-03-15T22:52:07.227Z,81.20
2019-03-15T22:54:37.185Z,80.60
2019-03-15T22:57:07.842Z,81.10
2019-03-15T22:59:37.729Z,81.50
2019-03-15T23:02:07.777Z,81.90
2019-03-15T23:04:37.558Z,82.20
2019-03-15T23:07:08.015Z,82.50
2019-03-15T23:09:37.859Z,82.60
2019-03-15T23:12:07.837Z,82.90
2019-03-15T23:14:37.605Z,83.10
2019-03-15T23:17:07.430Z,83.00
2019-03-15T23:19:37.295Z,83.30
2019-03-15T23:22:07.834Z,83.30
2019-03-15T23:24:37.651Z,83.40
2019-03-15T23:27:07.510Z,83.60
2019-03-15T23:29:37.486Z,83.80
2019-03-15T23:32:07.263Z,84.00
2019-03-15T23:34:37.097Z,83.90
2019-03-15T23:37:07.063Z,83.90
2019-03-15T23:39:36.961Z,84.00
2019-03-15T23:42:07.568Z,83.90
2019-03-15T23:44:37.893Z,83.90
2019-03-15T23:47:07.982Z,84.00
2019-03-15T23:49:37.826Z,83.90
2019-03-15T23:52:07.997Z,83.80
2019-03-15T23:54:37.895Z,83.70
2019-03-15T23:57:07.737Z,83.50
2019-03-15T23:59:37.570Z,83.50
